sensor_id;sensor_type;location;lat;lon;timestamp;P1;durP1;ratioP1;P2;durP2;ratioP2
6626;SDS011;3349;49.830;8.748;2023-10-19T00:01:25;16.17;;;13.70;;
6626;SDS011;3349;49.830;8.748;2023-10-19T00:03:54;14.73;;;13.23;;
6626;SDS011;3349;49.830;8.748;2023-10-19T00:06:21;15.55;;;13.18;;
6626;SDS011;3349;49.830;8.748;2023-10-19T00:08:48;16.00;;;13.35;;
6626;SDS011;3349;49.830;8.748;2023-10-19T00:11:15;15.57;;;13.35;;
6626;SDS011;3349;49.830;8.748;2023-10-19T00:13:46;18.65;;;14.48;;
6626;SDS011;3349;49.830;8.748;2023-10-19T00:16:15;16.80;;;14.38;;
6626;SDS011;3349;49.830;8.748;2023-10-19T00:18:41;14.93;;;13.32;;
6626;SDS011;3349;49.830;8.748;2023-10-19T00:21:10;18.55;;;14.82;;
6626;SDS011;3349;49.830;8.748;2023-10-19T00:23:44;17.17;;;15.02;;
6626;SDS011;3349;49.830;8.748;2023-10-19T00:26:14;19.23;;;15.13;;
6626;SDS011;3349;49.830;8.748;2023-10-19T00:28:42;17.40;;;14.20;;
6626;SDS011;3349;49.830;8.748;2023-10-19T00:31:11;18.60;;;14.85;;
6626;SDS011;3349;49.830;8.748;2023-10-19T00:33:37;16.83;;;14.80;;
6626;SDS011;3349;49.830;8.748;2023-10-19T00:36:05;19.90;;;15.07;;
6626;SDS011;3349;49.830;8.748;2023-10-19T00:38:34;18.48;;;14.65;;
6626;SDS011;3349;49.830;8.748;2023-10-19T00:41:12;16.35;;;14.48;;
6626;SDS011;3349;49.830;8.748;2023-10-19T00:43:45;20.42;;;15.30;;
6626;SDS011;3349;49.830;8.748;2023-10-19T00:46:14;16.40;;;14.45;;
6626;SDS011;3349;49.830;8.748;2023-10-19T00:48:47;18.40;;;14.88;;
6626;SDS011;3349;49.830;8.748;2023-10-19T00:51:16;17.30;;;14.93;;
6626;SDS011;3349;49.830;8.748;2023-10-19T00:54:09;16.13;;;13.95;;
6626;SDS011;3349;49.830;8.748;2023-10-19T00:56:40;19.48;;;15.10;;
6626;SDS011;3349;49.830;8.748;2023-10-19T00:59:11;18.02;;;15.13;;
6626;SDS011;3349;49.830;8.748;2023-10-19T01:01:40;17.95;;;15.20;;
6626;SDS011;3349;49.830;8.748;2023-10-19T01:04:09;20.00;;;14.75;;
6626;SDS011;3349;49.830;8.748;2023-10-19T01:06:39;19.10;;;15.32;;
6626;SDS011;3349;49.830;8.748;2023-10-19T01:09:10;16.77;;;14.32;;
6626;SDS011;3349;49.830;8.748;2023-10-19T01:11:39;15.82;;;14.13;;
6626;SDS011;3349;49.830;8.748;2023-10-19T01:14:20;16.50;;;13.52;;
6626;SDS011;3349;49.830;8.748;2023-10-19T01:16:48;17.98;;;14.15;;
6626;SDS011;3349;49.830;8.748;2023-10-19T01:19:16;16.50;;;13.43;;
6626;SDS011;3349;49.830;8.748;2023-10-19T01:21:43;17.90;;;13.52;;
6626;SDS011;3349;49.830;8.748;2023-10-19T01:24:17;15.43;;;13.30;;
6626;SDS011;3349;49.830;8.748;2023-10-19T01:26:51;15.05;;;10.43;;
6626;SDS011;3349;49.830;8.748;2023-10-19T01:29:18;12.90;;;8.93;;
6626;SDS011;3349;49.830;8.748;2023-10-19T01:31:52;10.52;;;8.27;;
6626;SDS011;3349;49.830;8.748;2023-10-19T01:34:21;10.65;;;7.22;;
6626;SDS011;3349;49.830;8.748;2023-10-19T01:36:51;9.43;;;7.25;;
6626;SDS011;3349;49.830;8.748;2023-10-19T01:39:22;8.27;;;6.80;;
6626;SDS011;3349;49.830;8.748;2023-10-19T01:41:48;8.90;;;6.85;;
6626;SDS011;3349;49.830;8.748;2023-10-19T01:44:15;8.20;;;6.80;;
6626;SDS011;3349;49.830;8.748;2023-10-19T01:46:42;7.97;;;7.07;;
6626;SDS011;3349;49.830;8.748;2023-10-19T01:49:10;12.20;;;7.22;;
6626;SDS011;3349;49.830;8.748;2023-10-19T01:51:36;11.90;;;6.85;;
6626;SDS011;3349;49.830;8.748;2023-10-19T01:54:04;10.95;;;6.45;;
6626;SDS011;3349;49.830;8.748;2023-10-19T01:56:32;8.35;;;6.70;;
6626;SDS011;3349;49.830;8.748;2023-10-19T01:59:00;8.73;;;6.97;;
6626;SDS011;3349;49.830;8.748;2023-10-19T02:01:27;9.73;;;6.50;;
6626;SDS011;3349;49.830;8.748;2023-10-19T02:03:58;9.77;;;6.95;;
6626;SDS011;3349;49.830;8.748;2023-10-19T02:06:25;8.98;;;6.90;;
6626;SDS011;3349;49.830;8.748;2023-10-19T02:09:02;11.35;;;6.50;;
6626;SDS011;3349;49.830;8.748;2023-10-19T02:11:35;7.22;;;6.18;;
6626;SDS011;3349;49.830;8.748;2023-10-19T02:14:06;9.38;;;6.07;;
6626;SDS011;3349;49.830;8.748;2023-10-19T02:16:39;10.80;;;6.30;;
6626;SDS011;3349;49.830;8.748;2023-10-19T02:19:04;8.13;;;6.22;;
6626;SDS011;3349;49.830;8.748;2023-10-19T02:21:31;9.73;;;5.80;;
6626;SDS011;3349;49.830;8.748;2023-10-19T02:24:03;9.55;;;6.10;;
6626;SDS011;3349;49.830;8.748;2023-10-19T02:26:32;7.60;;;5.85;;
6626;SDS011;3349;49.830;8.748;2023-10-19T02:28:59;8.95;;;6.38;;
6626;SDS011;3349;49.830;8.748;2023-10-19T02:31:32;8.43;;;5.90;;
6626;SDS011;3349;49.830;8.748;2023-10-19T02:33:58;10.27;;;6.38;;
6626;SDS011;3349;49.830;8.748;2023-10-19T02:36:25;7.45;;;6.32;;
6626;SDS011;3349;49.830;8.748;2023-10-19T02:38:53;10.55;;;6.57;;
6626;SDS011;3349;49.830;8.748;2023-10-19T02:41:23;11.05;;;6.50;;
6626;SDS011;3349;49.830;8.748;2023-10-19T02:43:49;9.50;;;6.70;;
6626;SDS011;3349;49.830;8.748;2023-10-19T02:46:27;8.95;;;6.57;;
6626;SDS011;3349;49.830;8.748;2023-10-19T02:48:53;12.10;;;7.40;;
6626;SDS011;3349;49.830;8.748;2023-10-19T02:51:20;11.77;;;6.75;;
6626;SDS011;3349;49.830;8.748;2023-10-19T02:53:46;12.45;;;7.53;;
6626;SDS011;3349;49.830;8.748;2023-10-19T02:56:13;9.10;;;7.28;;
6626;SDS011;3349;49.830;8.748;2023-10-19T02:58:42;11.93;;;7.13;;
6626;SDS011;3349;49.830;8.748;2023-10-19T03:01:14;9.75;;;6.50;;
6626;SDS011;3349;49.830;8.748;2023-10-19T03:03:44;10.98;;;7.57;;
6626;SDS011;3349;49.830;8.748;2023-10-19T03:06:11;11.23;;;6.93;;
6626;SDS011;3349;49.830;8.748;2023-10-19T03:08:37;10.07;;;7.88;;
6626;SDS011;3349;49.830;8.748;2023-10-19T03:11:04;9.95;;;7.55;;
6626;SDS011;3349;49.830;8.748;2023-10-19T03:13:29;10.45;;;7.70;;
6626;SDS011;3349;49.830;8.748;2023-10-19T03:15:57;11.35;;;7.18;;
6626;SDS011;3349;49.830;8.748;2023-10-19T03:18:25;9.90;;;7.60;;
6626;SDS011;3349;49.830;8.748;2023-10-19T03:20:54;7.90;;;7.07;;
6626;SDS011;3349;49.830;8.748;2023-10-19T03:23:21;8.32;;;6.88;;
6626;SDS011;3349;49.830;8.748;2023-10-19T03:25:52;14.57;;;7.70;;
6626;SDS011;3349;49.830;8.748;2023-10-19T03:28:37;11.77;;;7.53;;
6626;SDS011;3349;49.830;8.748;2023-10-19T03:31:05;10.40;;;7.75;;
6626;SDS011;3349;49.830;8.748;2023-10-19T03:33:32;10.68;;;7.53;;
6626;SDS011;3349;49.830;8.748;2023-10-19T03:36:02;10.88;;;7.40;;
6626;SDS011;3349;49.830;8.748;2023-10-19T03:38:30;8.48;;;7.43;;
6626;SDS011;3349;49.830;8.748;2023-10-19T03:41:01;10.65;;;7.25;;
6626;SDS011;3349;49.830;8.748;2023-10-19T03:43:32;10.82;;;7.88;;
6626;SDS011;3349;49.830;8.748;2023-10-19T03:46:01;11.32;;;7.38;;
6626;SDS011;3349;49.830;8.748;2023-10-19T03:48:39;9.73;;;7.03;;
6626;SDS011;3349;49.830;8.748;2023-10-19T03:51:07;12.00;;;7.10;;
6626;SDS011;3349;49.830;8.748;2023-10-19T03:53:37;9.13;;;6.20;;
6626;SDS011;3349;49.830;8.748;2023-10-19T03:56:05;10.85;;;7.50;;
6626;SDS011;3349;49.830;8.748;2023-10-19T03:58:35;10.80;;;6.80;;
6626;SDS011;3349;49.830;8.748;2023-10-19T04:01:03;11.48;;;7.88;;
6626;SDS011;3349;49.830;8.748;2023-10-19T04:03:30;10.02;;;6.82;;
6626;SDS011;3349;49.830;8.748;2023-10-19T04:05:57;9.52;;;7.03;;
6626;SDS011;3349;49.830;8.748;2023-10-19T04:08:26;11.30;;;7.57;;
6626;SDS011;3349;49.830;8.748;2023-10-19T04:10:59;9.32;;;7.85;;
6626;SDS011;3349;49.830;8.748;2023-10-19T04:13:36;11.52;;;8.32;;
6626;SDS011;3349;49.830;8.748;2023-10-19T04:16:04;8.35;;;7.35;;
6626;SDS011;3349;49.830;8.748;2023-10-19T04:18:33;9.23;;;7.82;;
6626;SDS011;3349;49.830;8.748;2023-10-19T04:21:03;11.60;;;8.95;;
6626;SDS011;3349;49.830;8.748;2023-10-19T04:23:31;12.77;;;9.73;;
6626;SDS011;3349;49.830;8.748;2023-10-19T04:26:00;14.63;;;10.55;;
6626;SDS011;3349;49.830;8.748;2023-10-19T04:28:30;13.40;;;11.18;;
6626;SDS011;3349;49.830;8.748;2023-10-19T04:31:03;13.52;;;10.73;;
6626;SDS011;3349;49.830;8.748;2023-10-19T04:33:31;14.10;;;10.48;;
6626;SDS011;3349;49.830;8.748;2023-10-19T04:35:59;14.10;;;10.68;;
6626;SDS011;3349;49.830;8.748;2023-10-19T04:38:26;14.02;;;10.88;;
6626;SDS011;3349;49.830;8.748;2023-10-19T04:41:04;13.18;;;11.02;;
6626;SDS011;3349;49.830;8.748;2023-10-19T04:43:33;12.50;;;10.55;;
6626;SDS011;3349;49.830;8.748;2023-10-19T04:46:00;14.00;;;11.32;;
6626;SDS011;3349;49.830;8.748;2023-10-19T04:48:32;17.33;;;11.60;;
6626;SDS011;3349;49.830;8.748;2023-10-19T04:51:00;16.52;;;12.52;;
6626;SDS011;3349;49.830;8.748;2023-10-19T04:53:28;19.70;;;12.57;;
6626;SDS011;3349;49.830;8.748;2023-10-19T04:55:55;14.65;;;12.38;;
6626;SDS011;3349;49.830;8.748;2023-10-19T04:58:24;18.45;;;13.07;;
6626;SDS011;3349;49.830;8.748;2023-10-19T05:00:52;19.02;;;13.07;;
6626;SDS011;3349;49.830;8.748;2023-10-19T05:03:19;16.70;;;13.43;;
6626;SDS011;3349;49.830;8.748;2023-10-19T05:05:46;16.15;;;13.63;;
6626;SDS011;3349;49.830;8.748;2023-10-19T05:08:13;16.63;;;14.18;;
6626;SDS011;3349;49.830;8.748;2023-10-19T05:10:39;16.10;;;13.27;;
6626;SDS011;3349;49.830;8.748;2023-10-19T05:13:07;18.48;;;13.80;;
6626;SDS011;3349;49.830;8.748;2023-10-19T05:15:35;15.40;;;12.80;;
6626;SDS011;3349;49.830;8.748;2023-10-19T05:18:02;16.42;;;12.50;;
6626;SDS011;3349;49.830;8.748;2023-10-19T05:20:29;14.07;;;11.73;;
6626;SDS011;3349;49.830;8.748;2023-10-19T05:22:56;14.10;;;12.60;;
6626;SDS011;3349;49.830;8.748;2023-10-19T05:25:25;16.27;;;12.45;;
6626;SDS011;3349;49.830;8.748;2023-10-19T05:27:52;14.35;;;11.82;;
6626;SDS011;3349;49.830;8.748;2023-10-19T05:30:18;17.83;;;13.13;;
6626;SDS011;3349;49.830;8.748;2023-10-19T05:32:48;16.63;;;12.35;;
6626;SDS011;3349;49.830;8.748;2023-10-19T05:35:16;20.75;;;15.23;;
6626;SDS011;3349;49.830;8.748;2023-10-19T05:37:48;15.13;;;13.10;;
6626;SDS011;3349;49.830;8.748;2023-10-19T05:40:15;19.95;;;14.10;;
6626;SDS011;3349;49.830;8.748;2023-10-19T05:42:43;19.10;;;13.68;;
6626;SDS011;3349;49.830;8.748;2023-10-19T05:45:11;18.95;;;13.65;;
6626;SDS011;3349;49.830;8.748;2023-10-19T05:47:41;20.05;;;14.43;;
6626;SDS011;3349;49.830;8.748;2023-10-19T05:50:10;17.73;;;13.73;;
6626;SDS011;3349;49.830;8.748;2023-10-19T05:52:40;18.77;;;13.00;;
6626;SDS011;3349;49.830;8.748;2023-10-19T05:55:07;19.65;;;12.75;;
6626;SDS011;3349;49.830;8.748;2023-10-19T05:57:34;16.80;;;12.57;;
6626;SDS011;3349;49.830;8.748;2023-10-19T06:00:05;17.35;;;11.77;;
6626;SDS011;3349;49.830;8.748;2023-10-19T06:02:33;19.42;;;13.10;;
6626;SDS011;3349;49.830;8.748;2023-10-19T06:05:00;20.30;;;13.00;;
6626;SDS011;3349;49.830;8.748;2023-10-19T06:07:28;15.32;;;12.48;;
6626;SDS011;3349;49.830;8.748;2023-10-19T06:09:55;16.48;;;12.00;;
6626;SDS011;3349;49.830;8.748;2023-10-19T06:12:21;21.80;;;14.20;;
6626;SDS011;3349;49.830;8.748;2023-10-19T06:14:48;18.27;;;12.50;;
6626;SDS011;3349;49.830;8.748;2023-10-19T06:17:14;18.83;;;12.93;;
6626;SDS011;3349;49.830;8.748;2023-10-19T06:19:44;16.25;;;11.07;;
6626;SDS011;3349;49.830;8.748;2023-10-19T06:22:11;16.42;;;12.43;;
6626;SDS011;3349;49.830;8.748;2023-10-19T06:24:41;17.02;;;11.95;;
6626;SDS011;3349;49.830;8.748;2023-10-19T06:27:08;19.27;;;13.15;;
6626;SDS011;3349;49.830;8.748;2023-10-19T06:29:35;13.60;;;11.40;;
6626;SDS011;3349;49.830;8.748;2023-10-19T06:32:02;14.60;;;11.18;;
6626;SDS011;3349;49.830;8.748;2023-10-19T06:34:29;16.90;;;12.05;;
6626;SDS011;3349;49.830;8.748;2023-10-19T06:36:57;16.95;;;11.10;;
6626;SDS011;3349;49.830;8.748;2023-10-19T06:39:24;13.20;;;9.98;;
6626;SDS011;3349;49.830;8.748;2023-10-19T06:41:52;13.50;;;9.77;;
6626;SDS011;3349;49.830;8.748;2023-10-19T06:44:19;11.32;;;9.73;;
6626;SDS011;3349;49.830;8.748;2023-10-19T06:46:47;14.73;;;9.98;;
6626;SDS011;3349;49.830;8.748;2023-10-19T06:49:14;13.55;;;10.25;;
6626;SDS011;3349;49.830;8.748;2023-10-19T06:51:42;13.38;;;9.75;;
6626;SDS011;3349;49.830;8.748;2023-10-19T06:54:10;11.60;;;9.00;;
6626;SDS011;3349;49.830;8.748;2023-10-19T06:56:38;12.60;;;9.38;;
6626;SDS011;3349;49.830;8.748;2023-10-19T06:59:07;10.70;;;8.48;;
6626;SDS011;3349;49.830;8.748;2023-10-19T07:01:34;8.98;;;8.00;;
6626;SDS011;3349;49.830;8.748;2023-10-19T07:04:01;9.98;;;7.85;;
6626;SDS011;3349;49.830;8.748;2023-10-19T07:06:28;10.55;;;8.15;;
6626;SDS011;3349;49.830;8.748;2023-10-19T07:08:55;8.32;;;7.20;;
6626;SDS011;3349;49.830;8.748;2023-10-19T07:11:23;8.95;;;6.88;;
6626;SDS011;3349;49.830;8.748;2023-10-19T07:13:49;8.20;;;6.47;;
6626;SDS011;3349;49.830;8.748;2023-10-19T07:16:17;7.22;;;6.15;;
6626;SDS011;3349;49.830;8.748;2023-10-19T07:18:45;8.95;;;5.90;;
6626;SDS011;3349;49.830;8.748;2023-10-19T07:21:11;9.27;;;5.88;;
6626;SDS011;3349;49.830;8.748;2023-10-19T07:23:38;9.07;;;5.70;;
6626;SDS011;3349;49.830;8.748;2023-10-19T07:26:05;7.80;;;6.53;;
6626;SDS011;3349;49.830;8.748;2023-10-19T07:28:32;8.60;;;6.00;;
6626;SDS011;3349;49.830;8.748;2023-10-19T07:31:00;8.10;;;5.47;;
6626;SDS011;3349;49.830;8.748;2023-10-19T07:33:28;7.22;;;5.65;;
6626;SDS011;3349;49.830;8.748;2023-10-19T07:35:55;8.77;;;5.95;;
6626;SDS011;3349;49.830;8.748;2023-10-19T07:38:25;8.95;;;5.47;;
6626;SDS011;3349;49.830;8.748;2023-10-19T07:40:53;7.50;;;4.85;;
6626;SDS011;3349;49.830;8.748;2023-10-19T07:43:20;6.05;;;5.00;;
6626;SDS011;3349;49.830;8.748;2023-10-19T07:45:47;7.13;;;4.80;;
6626;SDS011;3349;49.830;8.748;2023-10-19T07:48:14;7.13;;;4.95;;
6626;SDS011;3349;49.830;8.748;2023-10-19T07:50:43;7.38;;;5.07;;
6626;SDS011;3349;49.830;8.748;2023-10-19T07:53:10;9.32;;;4.43;;
6626;SDS011;3349;49.830;8.748;2023-10-19T07:55:37;10.50;;;4.40;;
6626;SDS011;3349;49.830;8.748;2023-10-19T07:58:04;9.00;;;4.35;;
6626;SDS011;3349;49.830;8.748;2023-10-19T08:00:32;11.20;;;9.13;;
6626;SDS011;3349;49.830;8.748;2023-10-19T08:03:00;14.85;;;9.15;;
6626;SDS011;3349;49.830;8.748;2023-10-19T08:05:26;11.50;;;6.65;;
6626;SDS011;3349;49.830;8.748;2023-10-19T08:07:55;8.70;;;5.90;;
6626;SDS011;3349;49.830;8.748;2023-10-19T08:10:23;9.32;;;6.43;;
6626;SDS011;3349;49.830;8.748;2023-10-19T08:12:52;8.27;;;5.40;;
6626;SDS011;3349;49.830;8.748;2023-10-19T08:15:20;9.95;;;4.28;;
6626;SDS011;3349;49.830;8.748;2023-10-19T08:17:48;7.15;;;3.95;;
6626;SDS011;3349;49.830;8.748;2023-10-19T08:20:16;6.53;;;4.00;;
6626;SDS011;3349;49.830;8.748;2023-10-19T08:22:48;4.75;;;4.18;;
6626;SDS011;3349;49.830;8.748;2023-10-19T08:25:16;8.80;;;3.80;;
6626;SDS011;3349;49.830;8.748;2023-10-19T08:27:43;7.28;;;3.83;;
6626;SDS011;3349;49.830;8.748;2023-10-19T08:30:10;6.53;;;4.07;;
6626;SDS011;3349;49.830;8.748;2023-10-19T08:32:39;8.20;;;4.25;;
6626;SDS011;3349;49.830;8.748;2023-10-19T08:35:07;7.38;;;3.85;;
6626;SDS011;3349;49.830;8.748;2023-10-19T08:37:36;4.50;;;3.92;;
6626;SDS011;3349;49.830;8.748;2023-10-19T08:40:04;4.10;;;3.67;;
6626;SDS011;3349;49.830;8.748;2023-10-19T08:42:34;4.95;;;3.90;;
6626;SDS011;3349;49.830;8.748;2023-10-19T08:45:01;4.95;;;3.53;;
6626;SDS011;3349;49.830;8.748;2023-10-19T08:47:33;5.72;;;3.45;;
6626;SDS011;3349;49.830;8.748;2023-10-19T08:50:01;5.43;;;2.90;;
6626;SDS011;3349;49.830;8.748;2023-10-19T08:52:30;5.50;;;2.50;;
6626;SDS011;3349;49.830;8.748;2023-10-19T08:54:57;4.57;;;2.60;;
6626;SDS011;3349;49.830;8.748;2023-10-19T08:57:24;6.55;;;2.80;;
6626;SDS011;3349;49.830;8.748;2023-10-19T08:59:52;5.45;;;3.00;;
6626;SDS011;3349;49.830;8.748;2023-10-19T09:02:21;4.88;;;2.45;;
6626;SDS011;3349;49.830;8.748;2023-10-19T09:04:48;4.43;;;2.70;;
6626;SDS011;3349;49.830;8.748;2023-10-19T09:07:16;3.85;;;2.42;;
6626;SDS011;3349;49.830;8.748;2023-10-19T09:09:43;4.95;;;2.97;;
6626;SDS011;3349;49.830;8.748;2023-10-19T09:12:12;5.20;;;2.60;;
6626;SDS011;3349;49.830;8.748;2023-10-19T09:14:39;5.55;;;2.45;;
6626;SDS011;3349;49.830;8.748;2023-10-19T09:17:07;6.55;;;2.65;;
6626;SDS011;3349;49.830;8.748;2023-10-19T09:19:36;5.25;;;2.17;;
6626;SDS011;3349;49.830;8.748;2023-10-19T09:22:04;5.68;;;2.40;;
6626;SDS011;3349;49.830;8.748;2023-10-19T09:24:41;5.90;;;3.33;;
6626;SDS011;3349;49.830;8.748;2023-10-19T09:27:08;3.38;;;2.00;;
6626;SDS011;3349;49.830;8.748;2023-10-19T09:29:35;7.35;;;2.22;;
6626;SDS011;3349;49.830;8.748;2023-10-19T09:32:02;4.60;;;2.30;;
6626;SDS011;3349;49.830;8.748;2023-10-19T09:34:32;5.15;;;2.05;;
6626;SDS011;3349;49.830;8.748;2023-10-19T09:37:00;5.05;;;2.10;;
6626;SDS011;3349;49.830;8.748;2023-10-19T09:39:28;4.85;;;2.03;;
6626;SDS011;3349;49.830;8.748;2023-10-19T09:41:59;8.77;;;2.60;;
6626;SDS011;3349;49.830;8.748;2023-10-19T09:44:30;4.82;;;2.13;;
6626;SDS011;3349;49.830;8.748;2023-10-19T09:47:05;5.53;;;2.13;;
6626;SDS011;3349;49.830;8.748;2023-10-19T09:49:39;4.97;;;2.35;;
6626;SDS011;3349;49.830;8.748;2023-10-19T09:52:07;3.78;;;2.28;;
6626;SDS011;3349;49.830;8.748;2023-10-19T09:54:39;6.47;;;2.75;;
6626;SDS011;3349;49.830;8.748;2023-10-19T09:57:13;5.15;;;2.30;;
6626;SDS011;3349;49.830;8.748;2023-10-19T09:59:45;4.93;;;2.40;;
6626;SDS011;3349;49.830;8.748;2023-10-19T10:02:16;6.10;;;2.50;;
6626;SDS011;3349;49.830;8.748;2023-10-19T10:04:45;6.75;;;2.55;;
6626;SDS011;3349;49.830;8.748;2023-10-19T10:07:13;4.35;;;2.50;;
6626;SDS011;3349;49.830;8.748;2023-10-19T10:09:41;4.75;;;2.20;;
6626;SDS011;3349;49.830;8.748;2023-10-19T10:12:19;3.22;;;1.70;;
6626;SDS011;3349;49.830;8.748;2023-10-19T10:14:56;5.93;;;2.40;;
6626;SDS011;3349;49.830;8.748;2023-10-19T10:17:26;3.90;;;2.05;;
6626;SDS011;3349;49.830;8.748;2023-10-19T10:19:55;5.85;;;2.10;;
6626;SDS011;3349;49.830;8.748;2023-10-19T10:22:24;3.75;;;2.53;;
6626;SDS011;3349;49.830;8.748;2023-10-19T10:24:55;3.50;;;2.00;;
6626;SDS011;3349;49.830;8.748;2023-10-19T10:27:22;3.97;;;2.30;;
6626;SDS011;3349;49.830;8.748;2023-10-19T10:29:55;4.13;;;2.22;;
6626;SDS011;3349;49.830;8.748;2023-10-19T10:35:10;4.65;;;2.33;;
6626;SDS011;3349;49.830;8.748;2023-10-19T10:38:16;3.47;;;2.33;;
6626;SDS011;3349;49.830;8.748;2023-10-19T10:40:42;3.63;;;2.10;;
6626;SDS011;3349;49.830;8.748;2023-10-19T10:43:09;4.45;;;2.08;;
6626;SDS011;3349;49.830;8.748;2023-10-19T10:45:37;4.07;;;1.77;;
6626;SDS011;3349;49.830;8.748;2023-10-19T10:48:04;4.18;;;2.42;;
6626;SDS011;3349;49.830;8.748;2023-10-19T10:50:38;3.67;;;2.05;;
6626;SDS011;3349;49.830;8.748;2023-10-19T10:53:06;4.18;;;2.60;;
6626;SDS011;3349;49.830;8.748;2023-10-19T10:55:33;3.15;;;1.90;;
6626;SDS011;3349;49.830;8.748;2023-10-19T10:58:00;3.92;;;2.25;;
6626;SDS011;3349;49.830;8.748;2023-10-19T11:00:27;2.80;;;2.13;;
6626;SDS011;3349;49.830;8.748;2023-10-19T11:03:00;3.03;;;1.95;;
6626;SDS011;3349;49.830;8.748;2023-10-19T11:05:29;4.30;;;2.40;;
6626;SDS011;3349;49.830;8.748;2023-10-19T11:08:04;5.53;;;2.47;;
6626;SDS011;3349;49.830;8.748;2023-10-19T11:10:34;8.00;;;2.80;;
6626;SDS011;3349;49.830;8.748;2023-10-19T11:13:01;5.55;;;2.45;;
6626;SDS011;3349;49.830;8.748;2023-10-19T11:15:28;4.97;;;2.38;;
6626;SDS011;3349;49.830;8.748;2023-10-19T11:17:55;6.72;;;2.90;;
6626;SDS011;3349;49.830;8.748;2023-10-19T11:20:22;4.70;;;2.75;;
6626;SDS011;3349;49.830;8.748;2023-10-19T11:22:51;5.68;;;2.78;;
6626;SDS011;3349;49.830;8.748;2023-10-19T11:25:22;5.28;;;2.83;;
6626;SDS011;3349;49.830;8.748;2023-10-19T11:27:53;5.28;;;3.17;;
6626;SDS011;3349;49.830;8.748;2023-10-19T11:30:23;4.97;;;3.67;;
6626;SDS011;3349;49.830;8.748;2023-10-19T11:32:51;4.57;;;2.90;;
6626;SDS011;3349;49.830;8.748;2023-10-19T11:35:21;4.90;;;2.70;;
6626;SDS011;3349;49.830;8.748;2023-10-19T11:37:49;6.95;;;3.45;;
6626;SDS011;3349;49.830;8.748;2023-10-19T11:40:17;4.78;;;3.17;;
6626;SDS011;3349;49.830;8.748;2023-10-19T11:42:46;4.30;;;3.30;;
6626;SDS011;3349;49.830;8.748;2023-10-19T11:45:13;7.22;;;3.72;;
6626;SDS011;3349;49.830;8.748;2023-10-19T11:47:41;6.43;;;3.83;;
6626;SDS011;3349;49.830;8.748;2023-10-19T11:50:08;6.05;;;3.90;;
6626;SDS011;3349;49.830;8.748;2023-10-19T11:52:37;6.50;;;3.05;;
6626;SDS011;3349;49.830;8.748;2023-10-19T11:55:04;7.65;;;3.53;;
6626;SDS011;3349;49.830;8.748;2023-10-19T11:57:33;7.55;;;3.80;;
6626;SDS011;3349;49.830;8.748;2023-10-19T12:00:02;6.10;;;3.17;;
6626;SDS011;3349;49.830;8.748;2023-10-19T12:02:33;5.68;;;3.40;;
6626;SDS011;3349;49.830;8.748;2023-10-19T12:05:02;3.65;;;2.55;;
6626;SDS011;3349;49.830;8.748;2023-10-19T12:07:29;4.07;;;2.28;;
6626;SDS011;3349;49.830;8.748;2023-10-19T12:09:57;4.45;;;2.65;;
6626;SDS011;3349;49.830;8.748;2023-10-19T12:12:24;5.30;;;2.55;;
6626;SDS011;3349;49.830;8.748;2023-10-19T12:14:51;3.33;;;2.25;;
6626;SDS011;3349;49.830;8.748;2023-10-19T12:17:20;3.85;;;3.13;;
6626;SDS011;3349;49.830;8.748;2023-10-19T12:19:51;4.18;;;2.63;;
6626;SDS011;3349;49.830;8.748;2023-10-19T12:22:17;4.43;;;3.10;;
6626;SDS011;3349;49.830;8.748;2023-10-19T12:24:46;4.35;;;2.88;;
6626;SDS011;3349;49.830;8.748;2023-10-19T12:27:13;3.97;;;2.90;;
6626;SDS011;3349;49.830;8.748;2023-10-19T12:29:39;3.22;;;2.70;;
6626;SDS011;3349;49.830;8.748;2023-10-19T12:32:06;3.67;;;2.47;;
6626;SDS011;3349;49.830;8.748;2023-10-19T12:34:35;3.33;;;2.42;;
6626;SDS011;3349;49.830;8.748;2023-10-19T12:37:02;2.72;;;2.50;;
6626;SDS011;3349;49.830;8.748;2023-10-19T12:39:29;3.05;;;2.60;;
6626;SDS011;3349;49.830;8.748;2023-10-19T12:42:07;3.10;;;2.80;;
6626;SDS011;3349;49.830;8.748;2023-10-19T12:44:34;4.22;;;3.03;;
6626;SDS011;3349;49.830;8.748;2023-10-19T12:47:06;4.38;;;3.08;;
6626;SDS011;3349;49.830;8.748;2023-10-19T12:49:36;3.00;;;2.30;;
6626;SDS011;3349;49.830;8.748;2023-10-19T12:52:03;5.32;;;2.63;;
6626;SDS011;3349;49.830;8.748;2023-10-19T12:54:32;4.45;;;2.55;;
6626;SDS011;3349;49.830;8.748;2023-10-19T12:56:59;4.00;;;2.40;;
6626;SDS011;3349;49.830;8.748;2023-10-19T12:59:28;5.13;;;2.13;;
6626;SDS011;3349;49.830;8.748;2023-10-19T13:01:55;3.90;;;2.88;;
6626;SDS011;3349;49.830;8.748;2023-10-19T13:04:23;4.50;;;2.72;;
6626;SDS011;3349;49.830;8.748;2023-10-19T13:06:52;4.00;;;3.33;;
6626;SDS011;3349;49.830;8.748;2023-10-19T13:09:22;4.63;;;2.70;;
6626;SDS011;3349;49.830;8.748;2023-10-19T13:11:55;4.47;;;2.40;;
6626;SDS011;3349;49.830;8.748;2023-10-19T13:14:22;3.55;;;2.80;;
6626;SDS011;3349;49.830;8.748;2023-10-19T13:16:49;4.00;;;2.88;;
6626;SDS011;3349;49.830;8.748;2023-10-19T13:19:16;6.53;;;3.00;;
6626;SDS011;3349;49.830;8.748;2023-10-19T13:21:45;3.10;;;2.80;;
6626;SDS011;3349;49.830;8.748;2023-10-19T13:24:15;6.60;;;3.28;;
6626;SDS011;3349;49.830;8.748;2023-10-19T13:26:43;7.20;;;3.55;;
6626;SDS011;3349;49.830;8.748;2023-10-19T13:29:12;4.80;;;3.58;;
6626;SDS011;3349;49.830;8.748;2023-10-19T13:31:39;3.97;;;3.58;;
6626;SDS011;3349;49.830;8.748;2023-10-19T13:34:08;4.03;;;3.38;;
6626;SDS011;3349;49.830;8.748;2023-10-19T13:36:38;6.90;;;4.15;;
6626;SDS011;3349;49.830;8.748;2023-10-19T13:39:04;4.47;;;3.92;;
6626;SDS011;3349;49.830;8.748;2023-10-19T13:41:39;6.70;;;4.40;;
6626;SDS011;3349;49.830;8.748;2023-10-19T13:44:05;7.22;;;4.57;;
6626;SDS011;3349;49.830;8.748;2023-10-19T13:46:32;4.93;;;4.30;;
6626;SDS011;3349;49.830;8.748;2023-10-19T13:48:59;5.82;;;4.85;;
6626;SDS011;3349;49.830;8.748;2023-10-19T13:51:28;8.23;;;4.72;;
6626;SDS011;3349;49.830;8.748;2023-10-19T13:53:56;7.93;;;4.45;;
6626;SDS011;3349;49.830;8.748;2023-10-19T13:56:23;7.30;;;4.50;;
6626;SDS011;3349;49.830;8.748;2023-10-19T13:58:51;9.30;;;4.78;;
6626;SDS011;3349;49.830;8.748;2023-10-19T14:01:17;6.05;;;4.20;;
6626;SDS011;3349;49.830;8.748;2023-10-19T14:03:49;10.45;;;4.45;;
6626;SDS011;3349;49.830;8.748;2023-10-19T14:06:17;5.55;;;4.25;;
6626;SDS011;3349;49.830;8.748;2023-10-19T14:08:44;6.10;;;4.57;;
6626;SDS011;3349;49.830;8.748;2023-10-19T14:11:12;7.72;;;4.63;;
6626;SDS011;3349;49.830;8.748;2023-10-19T14:13:39;10.48;;;4.82;;
6626;SDS011;3349;49.830;8.748;2023-10-19T14:16:09;6.10;;;4.75;;
6626;SDS011;3349;49.830;8.748;2023-10-19T14:18:36;7.95;;;4.13;;
6626;SDS011;3349;49.830;8.748;2023-10-19T14:21:09;10.27;;;5.18;;
6626;SDS011;3349;49.830;8.748;2023-10-19T14:23:38;6.43;;;4.45;;
6626;SDS011;3349;49.830;8.748;2023-10-19T14:26:06;7.88;;;4.38;;
6626;SDS011;3349;49.830;8.748;2023-10-19T14:28:34;6.65;;;4.43;;
6626;SDS011;3349;49.830;8.748;2023-10-19T14:31:00;6.95;;;4.68;;
6626;SDS011;3349;49.830;8.748;2023-10-19T14:33:30;7.97;;;4.82;;
6626;SDS011;3349;49.830;8.748;2023-10-19T14:35:58;5.72;;;4.50;;
6626;SDS011;3349;49.830;8.748;2023-10-19T14:38:25;5.60;;;4.30;;
6626;SDS011;3349;49.830;8.748;2023-10-19T14:40:52;9.73;;;4.70;;
6626;SDS011;3349;49.830;8.748;2023-10-19T14:43:19;7.60;;;4.90;;
6626;SDS011;3349;49.830;8.748;2023-10-19T14:45:46;6.25;;;4.60;;
6626;SDS011;3349;49.830;8.748;2023-10-19T14:48:12;5.82;;;5.22;;
6626;SDS011;3349;49.830;8.748;2023-10-19T14:50:41;7.45;;;5.38;;
6626;SDS011;3349;49.830;8.748;2023-10-19T14:53:09;9.27;;;6.05;;
6626;SDS011;3349;49.830;8.748;2023-10-19T14:55:35;7.63;;;5.80;;
6626;SDS011;3349;49.830;8.748;2023-10-19T14:58:02;9.90;;;7.97;;
6626;SDS011;3349;49.830;8.748;2023-10-19T15:00:31;15.90;;;12.75;;
6626;SDS011;3349;49.830;8.748;2023-10-19T15:02:59;15.20;;;13.05;;
6626;SDS011;3349;49.830;8.748;2023-10-19T15:05:31;12.38;;;9.50;;
6626;SDS011;3349;49.830;8.748;2023-10-19T15:08:02;11.98;;;7.55;;
6626;SDS011;3349;49.830;8.748;2023-10-19T15:10:30;8.95;;;7.68;;
6626;SDS011;3349;49.830;8.748;2023-10-19T15:12:57;7.95;;;6.47;;
6626;SDS011;3349;49.830;8.748;2023-10-19T15:15:24;9.60;;;6.85;;
6626;SDS011;3349;49.830;8.748;2023-10-19T15:17:51;9.82;;;7.57;;